sensor_id;sensor_type;location;lat;lon;timestamp;pressure;altitude;pressure_sealevel;temperature;humidity
76973;BME280;65907;53.640;10.050;2023-05-27T00:01:00;102315.69;;;22.39;38.17
76973;BME280;65907;53.640;10.050;2023-05-27T00:03:28;102328.81;;;22.39;37.91
76973;BME280;65907;53.640;10.050;2023-05-27T00:05:53;102325.53;;;22.35;38.05
76973;BME280;65907;53.640;10.050;2023-05-27T00:08:18;102330.03;;;22.33;37.89
76973;BME280;65907;53.640;10.050;2023-05-27T00:10:46;102319.53;;;22.33;38.12
76973;BME280;65907;53.640;10.050;2023-05-27T00:13:13;102318.72;;;22.32;38.10
76973;BME280;65907;53.640;10.050;2023-05-27T00:15:39;102329.47;;;22.28;38.29
76973;BME280;65907;53.640;10.050;2023-05-27T00:18:07;102323.41;;;22.27;38.50
76973;BME280;65907;53.640;10.050;2023-05-27T00:20:36;102329.94;;;22.34;38.09
76973;BME280;65907;53.640;10.050;2023-05-27T00:23:01;102322.03;;;22.22;38.01
76973;BME280;65907;53.640;10.050;2023-05-27T00:25:29;102325.19;;;22.27;38.33
76973;BME280;65907;53.640;10.050;2023-05-27T00:27:56;102324.03;;;22.31;38.31
76973;BME280;65907;53.640;10.050;2023-05-27T00:30:21;102327.22;;;22.36;38.26
76973;BME280;65907;53.640;10.050;2023-05-27T00:32:47;102315.91;;;22.35;38.15
76973;BME280;65907;53.640;10.050;2023-05-27T00:35:12;102324.03;;;22.31;38.09
76973;BME280;65907;53.640;10.050;2023-05-27T00:37:37;102319.75;;;22.30;38.35
76973;BME280;65907;53.640;10.050;2023-05-27T00:40:02;102319.88;;;22.28;38.06
76973;BME280;65907;53.640;10.050;2023-05-27T00:42:30;102317.13;;;22.30;37.91
76973;BME280;65907;53.640;10.050;2023-05-27T00:44:55;102321.81;;;22.25;38.36
76973;BME280;65907;53.640;10.050;2023-05-27T00:47:28;102321.75;;;22.26;38.22
76973;BME280;65907;53.640;10.050;2023-05-27T00:49:54;102319.41;;;22.22;38.43
76973;BME280;65907;53.640;10.050;2023-05-27T00:52:20;102317.59;;;22.22;38.48
76973;BME280;65907;53.640;10.050;2023-05-27T00:54:45;102317.31;;;22.27;37.99
76973;BME280;65907;53.640;10.050;2023-05-27T00:57:11;102317.41;;;22.25;38.15
76973;BME280;65907;53.640;10.050;2023-05-27T00:59:36;102312.28;;;22.24;38.24
76973;BME280;65907;53.640;10.050;2023-05-27T01:02:01;102309.47;;;22.27;38.22
76973;BME280;65907;53.640;10.050;2023-05-27T01:04:29;102310.50;;;22.24;38.29
76973;BME280;65907;53.640;10.050;2023-05-27T01:14:36;102311.28;;;22.12;38.48
76973;BME280;65907;53.640;10.050;2023-05-27T01:17:03;102316.50;;;22.26;38.33
76973;BME280;65907;53.640;10.050;2023-05-27T01:19:30;102318.75;;;22.18;38.31
76973;BME280;65907;53.640;10.050;2023-05-27T01:21:58;102313.06;;;22.11;38.65
76973;BME280;65907;53.640;10.050;2023-05-27T01:24:24;102319.03;;;22.13;38.52
76973;BME280;65907;53.640;10.050;2023-05-27T01:26:49;102322.31;;;22.17;38.29
76973;BME280;65907;53.640;10.050;2023-05-27T01:29:16;102314.16;;;22.22;37.97
76973;BME280;65907;53.640;10.050;2023-05-27T01:31:47;102304.09;;;22.15;38.38
76973;BME280;65907;53.640;10.050;2023-05-27T01:34:18;102305.66;;;22.18;38.22
76973;BME280;65907;53.640;10.050;2023-05-27T01:36:47;102306.25;;;22.09;38.24
76973;BME280;65907;53.640;10.050;2023-05-27T01:39:16;102297.28;;;21.98;38.56
76973;BME280;65907;53.640;10.050;2023-05-27T01:41:42;102296.34;;;21.99;38.34
76973;BME280;65907;53.640;10.050;2023-05-27T01:44:07;102293.16;;;22.09;38.32
76973;BME280;65907;53.640;10.050;2023-05-27T01:46:33;102293.97;;;22.09;38.25
76973;BME280;65907;53.640;10.050;2023-05-27T01:48:58;102290.88;;;22.17;38.20
76973;BME280;65907;53.640;10.050;2023-05-27T01:51:26;102294.34;;;22.17;38.12
76973;BME280;65907;53.640;10.050;2023-05-27T01:53:51;102291.47;;;22.08;38.33
76973;BME280;65907;53.640;10.050;2023-05-27T01:56:16;102287.44;;;22.02;38.70
76973;BME280;65907;53.640;10.050;2023-05-27T01:58:41;102291.00;;;22.01;38.52
76973;BME280;65907;53.640;10.050;2023-05-27T02:01:07;102291.16;;;22.12;38.35
76973;BME280;65907;53.640;10.050;2023-05-27T02:03:32;102281.28;;;22.03;38.25
76973;BME280;65907;53.640;10.050;2023-05-27T02:05:57;102283.22;;;22.14;38.28
76973;BME280;65907;53.640;10.050;2023-05-27T02:08:23;102280.25;;;22.05;38.39
76973;BME280;65907;53.640;10.050;2023-05-27T02:10:48;102288.84;;;22.08;38.28
76973;BME280;65907;53.640;10.050;2023-05-27T02:13:13;102276.56;;;22.08;38.36
76973;BME280;65907;53.640;10.050;2023-05-27T02:15:38;102274.09;;;21.92;38.73
76973;BME280;65907;53.640;10.050;2023-05-27T02:18:04;102277.16;;;21.99;38.70
76973;BME280;65907;53.640;10.050;2023-05-27T02:20:30;102274.28;;;22.03;38.39
76973;BME280;65907;53.640;10.050;2023-05-27T02:22:55;102276.03;;;22.03;38.32
76973;BME280;65907;53.640;10.050;2023-05-27T02:25:20;102279.31;;;22.06;38.18
76973;BME280;65907;53.640;10.050;2023-05-27T02:27:45;102278.78;;;22.14;37.99
76973;BME280;65907;53.640;10.050;2023-05-27T02:30:13;102277.25;;;21.97;38.46
76973;BME280;65907;53.640;10.050;2023-05-27T02:32:39;102268.63;;;22.10;38.13
76973;BME280;65907;53.640;10.050;2023-05-27T02:35:06;102285.91;;;22.12;38.10
76973;BME280;65907;53.640;10.050;2023-05-27T02:37:32;102286.50;;;22.03;38.39
76973;BME280;65907;53.640;10.050;2023-05-27T02:39:57;102281.75;;;21.95;38.16
76973;BME280;65907;53.640;10.050;2023-05-27T02:42:23;102284.91;;;22.00;38.41
76973;BME280;65907;53.640;10.050;2023-05-27T02:44:48;102286.22;;;22.08;38.09
76973;BME280;65907;53.640;10.050;2023-05-27T02:47:13;102280.34;;;22.04;38.38
76973;BME280;65907;53.640;10.050;2023-05-27T02:49:39;102286.09;;;22.09;37.88
76973;BME280;65907;53.640;10.050;2023-05-27T02:52:04;102285.56;;;22.04;38.14
76973;BME280;65907;53.640;10.050;2023-05-27T02:54:30;102292.50;;;22.05;38.04
76973;BME280;65907;53.640;10.050;2023-05-27T02:56:55;102289.03;;;22.04;37.97
76973;BME280;65907;53.640;10.050;2023-05-27T02:59:20;102289.31;;;22.00;38.10
76973;BME280;65907;53.640;10.050;2023-05-27T03:01:45;102299.47;;;21.91;38.42
76973;BME280;65907;53.640;10.050;2023-05-27T03:04:13;102295.31;;;21.87;38.51
76973;BME280;65907;53.640;10.050;2023-05-27T03:06:38;102294.22;;;21.91;38.33
76973;BME280;65907;53.640;10.050;2023-05-27T03:09:05;102297.19;;;22.00;38.28
76973;BME280;65907;53.640;10.050;2023-05-27T03:11:33;102304.38;;;22.11;37.95
76973;BME280;65907;53.640;10.050;2023-05-27T03:13:59;102306.91;;;21.98;38.23
76973;BME280;65907;53.640;10.050;2023-05-27T03:16:26;102302.91;;;21.92;38.17
76973;BME280;65907;53.640;10.050;2023-05-27T03:18:55;102297.19;;;22.00;38.30
76973;BME280;65907;53.640;10.050;2023-05-27T03:21:20;102297.94;;;21.87;38.17
76973;BME280;65907;53.640;10.050;2023-05-27T03:23:45;102291.47;;;21.93;38.39
76973;BME280;65907;53.640;10.050;2023-05-27T03:26:10;102291.13;;;21.85;38.40
76973;BME280;65907;53.640;10.050;2023-05-27T03:28:38;102290.47;;;21.96;38.29
76973;BME280;65907;53.640;10.050;2023-05-27T03:31:03;102282.94;;;22.04;38.44
76973;BME280;65907;53.640;10.050;2023-05-27T03:33:29;102274.16;;;22.05;37.94
76973;BME280;65907;53.640;10.050;2023-05-27T03:35:54;102273.94;;;22.08;38.08
76973;BME280;65907;53.640;10.050;2023-05-27T03:38:21;102277.72;;;22.04;38.20
76973;BME280;65907;53.640;10.050;2023-05-27T03:40:46;102270.06;;;21.86;38.28
76973;BME280;65907;53.640;10.050;2023-05-27T03:43:11;102281.47;;;22.00;38.24
76973;BME280;65907;53.640;10.050;2023-05-27T03:45:36;102279.41;;;22.05;38.24
76973;BME280;65907;53.640;10.050;2023-05-27T03:48:01;102279.59;;;21.87;38.19
76973;BME280;65907;53.640;10.050;2023-05-27T03:50:27;102278.25;;;22.09;37.96
76973;BME280;65907;53.640;10.050;2023-05-27T03:52:52;102273.22;;;22.06;37.87
76973;BME280;65907;53.640;10.050;2023-05-27T03:55:17;102277.50;;;22.07;38.21
76973;BME280;65907;53.640;10.050;2023-05-27T03:57:45;102282.22;;;22.02;37.80
76973;BME280;65907;53.640;10.050;2023-05-27T04:00:11;102279.41;;;22.05;38.07
76973;BME280;65907;53.640;10.050;2023-05-27T04:02:39;102280.94;;;21.95;38.00
76973;BME280;65907;53.640;10.050;2023-05-27T04:05:07;102282.75;;;22.07;37.85
76973;BME280;65907;53.640;10.050;2023-05-27T04:07:33;102283.88;;;22.17;37.71
76973;BME280;65907;53.640;10.050;2023-05-27T04:09:58;102276.94;;;22.16;38.03
76973;BME280;65907;53.640;10.050;2023-05-27T04:12:23;102272.94;;;22.11;37.69
76973;BME280;65907;53.640;10.050;2023-05-27T04:14:51;102273.38;;;22.17;37.91
76973;BME280;65907;53.640;10.050;2023-05-27T04:17:16;102266.16;;;21.94;38.13
76973;BME280;65907;53.640;10.050;2023-05-27T04:19:42;102263.47;;;22.08;38.10
76973;BME280;65907;53.640;10.050;2023-05-27T04:22:07;102262.84;;;22.04;37.86
76973;BME280;65907;53.640;10.050;2023-05-27T04:24:32;102258.16;;;22.10;38.06
76973;BME280;65907;53.640;10.050;2023-05-27T04:27:01;102254.59;;;22.11;37.92
76973;BME280;65907;53.640;10.050;2023-05-27T04:29:27;102259.53;;;22.15;37.87
76973;BME280;65907;53.640;10.050;2023-05-27T04:31:53;102248.94;;;22.17;37.69
76973;BME280;65907;53.640;10.050;2023-05-27T04:34:20;102252.78;;;22.11;37.79
76973;BME280;65907;53.640;10.050;2023-05-27T04:36:45;102247.56;;;22.11;37.88
76973;BME280;65907;53.640;10.050;2023-05-27T04:39:15;102243.91;;;22.14;37.59
76973;BME280;65907;53.640;10.050;2023-05-27T04:41:40;102244.09;;;22.38;37.52
76973;BME280;65907;53.640;10.050;2023-05-27T04:44:06;102248.09;;;22.84;36.21
76973;BME280;65907;53.640;10.050;2023-05-27T04:46:32;102247.66;;;23.03;35.73
76973;BME280;65907;53.640;10.050;2023-05-27T04:48:58;102249.25;;;23.19;35.09
76973;BME280;65907;53.640;10.050;2023-05-27T04:51:24;102248.44;;;23.44;34.51
76973;BME280;65907;53.640;10.050;2023-05-27T04:53:49;102263.00;;;23.61;34.46
76973;BME280;65907;53.640;10.050;2023-05-27T04:56:15;102258.38;;;23.52;34.33
76973;BME280;65907;53.640;10.050;2023-05-27T04:58:43;102250.72;;;23.10;35.25
76973;BME280;65907;53.640;10.050;2023-05-27T05:01:11;102261.34;;;23.34;34.63
76973;BME280;65907;53.640;10.050;2023-05-27T05:03:43;102271.59;;;23.63;34.30
76973;BME280;65907;53.640;10.050;2023-05-27T05:06:17;102270.75;;;23.63;34.29
76973;BME280;65907;53.640;10.050;2023-05-27T05:08:42;102267.41;;;23.22;34.83
76973;BME280;65907;53.640;10.050;2023-05-27T05:11:07;102273.75;;;23.32;34.69
76973;BME280;65907;53.640;10.050;2023-05-27T05:13:33;102269.19;;;23.60;34.31
76973;BME280;65907;53.640;10.050;2023-05-27T05:15:58;102265.94;;;23.18;35.02
76973;BME280;65907;53.640;10.050;2023-05-27T05:18:28;102275.56;;;22.91;35.65
76973;BME280;65907;53.640;10.050;2023-05-27T05:20:54;102280.94;;;22.77;35.97
76973;BME280;65907;53.640;10.050;2023-05-27T05:23:19;102276.38;;;22.53;36.36
76973;BME280;65907;53.640;10.050;2023-05-27T05:25:45;102280.28;;;22.46;36.85
76973;BME280;65907;53.640;10.050;2023-05-27T05:28:12;102282.81;;;22.75;36.23
76973;BME280;65907;53.640;10.050;2023-05-27T05:30:37;102274.84;;;23.15;35.38
76973;BME280;65907;53.640;10.050;2023-05-27T05:33:05;102280.72;;;22.80;35.90
76973;BME280;65907;53.640;10.050;2023-05-27T05:35:30;102279.09;;;22.37;36.78
76973;BME280;65907;53.640;10.050;2023-05-27T05:37:56;102280.44;;;22.30;36.91
76973;BME280;65907;53.640;10.050;2023-05-27T05:40:21;102287.75;;;22.25;37.47
76973;BME280;65907;53.640;10.050;2023-05-27T05:42:49;102284.69;;;22.18;37.39
76973;BME280;65907;53.640;10.050;2023-05-27T05:45:16;102286.06;;;21.96;37.86
76973;BME280;65907;53.640;10.050;2023-05-27T05:47:42;102273.69;;;21.98;37.91
76973;BME280;65907;53.640;10.050;2023-05-27T05:50:07;102272.88;;;22.25;37.39
76973;BME280;65907;53.640;10.050;2023-05-27T05:52:32;102272.72;;;22.14;37.43
76973;BME280;65907;53.640;10.050;2023-05-27T05:54:58;102272.97;;;22.24;37.51
76973;BME280;65907;53.640;10.050;2023-05-27T05:57:23;102274.06;;;22.34;37.47
76973;BME280;65907;53.640;10.050;2023-05-27T05:59:48;102269.38;;;22.39;37.52
76973;BME280;65907;53.640;10.050;2023-05-27T06:02:16;102277.63;;;22.33;37.23
76973;BME280;65907;53.640;10.050;2023-05-27T06:04:41;102272.66;;;22.15;37.80
76973;BME280;65907;53.640;10.050;2023-05-27T06:07:09;102275.44;;;22.40;37.26
76973;BME280;65907;53.640;10.050;2023-05-27T06:09:34;102279.59;;;22.57;37.01
76973;BME280;65907;53.640;10.050;2023-05-27T06:12:01;102270.38;;;22.51;36.92
76973;BME280;65907;53.640;10.050;2023-05-27T06:14:27;102264.63;;;22.59;36.69
76973;BME280;65907;53.640;10.050;2023-05-27T06:16:52;102267.44;;;22.28;37.69
76973;BME280;65907;53.640;10.050;2023-05-27T06:19:21;102266.34;;;22.18;37.75
76973;BME280;65907;53.640;10.050;2023-05-27T06:21:46;102262.16;;;22.15;37.91
76973;BME280;65907;53.640;10.050;2023-05-27T06:24:11;102272.16;;;21.81;38.28
76973;BME280;65907;53.640;10.050;2023-05-27T06:26:36;102264.38;;;21.80;38.70
76973;BME280;65907;53.640;10.050;2023-05-27T06:29:04;102270.34;;;21.53;39.14
76973;BME280;65907;53.640;10.050;2023-05-27T06:31:29;102270.06;;;21.43;39.52
76973;BME280;65907;53.640;10.050;2023-05-27T06:33:55;102272.53;;;21.31;39.93
76973;BME280;65907;53.640;10.050;2023-05-27T06:36:20;102269.16;;;21.29;39.88
76973;BME280;65907;53.640;10.050;2023-05-27T06:38:45;102264.09;;;21.55;39.47
76973;BME280;65907;53.640;10.050;2023-05-27T06:41:13;102268.88;;;21.63;39.56
76973;BME280;65907;53.640;10.050;2023-05-27T06:43:38;102267.56;;;21.41;39.97
76973;BME280;65907;53.640;10.050;2023-05-27T06:46:04;102262.97;;;21.88;39.26
76973;BME280;65907;53.640;10.050;2023-05-27T06:48:29;102262.00;;;22.04;39.03
76973;BME280;65907;53.640;10.050;2023-05-27T06:50:55;102256.06;;;22.42;38.16
76973;BME280;65907;53.640;10.050;2023-05-27T06:53:20;102260.22;;;22.32;38.07
76973;BME280;65907;53.640;10.050;2023-05-27T06:55:45;102263.38;;;22.65;37.69
76973;BME280;65907;53.640;10.050;2023-05-27T06:58:10;102260.53;;;22.68;37.46
76973;BME280;65907;53.640;10.050;2023-05-27T07:00:36;102252.50;;;22.84;37.34
76973;BME280;65907;53.640;10.050;2023-05-27T07:03:01;102269.16;;;22.83;37.07
76973;BME280;65907;53.640;10.050;2023-05-27T07:05:28;102258.59;;;22.84;37.44
76973;BME280;65907;53.640;10.050;2023-05-27T07:07:55;102256.41;;;23.04;36.84
76973;BME280;65907;53.640;10.050;2023-05-27T07:10:21;102261.66;;;23.04;37.15
76973;BME280;65907;53.640;10.050;2023-05-27T07:12:46;102259.31;;;22.99;36.86
76973;BME280;65907;53.640;10.050;2023-05-27T07:15:11;102249.69;;;22.87;37.32
76973;BME280;65907;53.640;10.050;2023-05-27T07:17:36;102252.09;;;23.03;37.10
76973;BME280;65907;53.640;10.050;2023-05-27T07:20:04;102255.13;;;23.23;36.71
76973;BME280;65907;53.640;10.050;2023-05-27T07:22:32;102246.84;;;22.90;37.14
76973;BME280;65907;53.640;10.050;2023-05-27T07:25:00;102245.16;;;23.15;37.11
76973;BME280;65907;53.640;10.050;2023-05-27T07:27:25;102243.50;;;23.14;36.80
76973;BME280;65907;53.640;10.050;2023-05-27T07:29:53;102247.88;;;23.13;36.97
76973;BME280;65907;53.640;10.050;2023-05-27T07:32:18;102238.25;;;23.01;37.22
76973;BME280;65907;53.640;10.050;2023-05-27T07:34:44;102241.91;;;23.24;37.07
76973;BME280;65907;53.640;10.050;2023-05-27T07:37:09;102232.47;;;23.09;37.06
76973;BME280;65907;53.640;10.050;2023-05-27T07:39:34;102234.38;;;23.32;36.67
76973;BME280;65907;53.640;10.050;2023-05-27T07:42:02;102237.81;;;23.33;36.74
76973;BME280;65907;53.640;10.050;2023-05-27T07:44:30;102228.38;;;23.43;36.76
76973;BME280;65907;53.640;10.050;2023-05-27T07:46:55;102224.16;;;23.41;36.64
76973;BME280;65907;53.640;10.050;2023-05-27T07:49:20;102232.34;;;23.49;36.37
76973;BME280;65907;53.640;10.050;2023-05-27T07:51:46;102231.34;;;23.26;36.95
76973;BME280;65907;53.640;10.050;2023-05-27T07:54:11;102227.00;;;23.38;36.98
76973;BME280;65907;53.640;10.050;2023-05-27T07:56:36;102232.78;;;23.43;36.67
76973;BME280;65907;53.640;10.050;2023-05-27T07:59:02;102228.75;;;23.50;36.89
76973;BME280;65907;53.640;10.050;2023-05-27T08:01:29;102217.66;;;23.46;36.66
76973;BME280;65907;53.640;10.050;2023-05-27T08:04:00;102215.84;;;23.47;36.66
76973;BME280;65907;53.640;10.050;2023-05-27T08:06:25;102209.56;;;23.49;36.77
76973;BME280;65907;53.640;10.050;2023-05-27T08:08:53;102203.91;;;23.43;37.03
76973;BME280;65907;53.640;10.050;2023-05-27T08:11:18;102206.97;;;23.24;37.54
76973;BME280;65907;53.640;10.050;2023-05-27T08:14:16;102208.44;;;23.28;37.44
76973;BME280;65907;53.640;10.050;2023-05-27T08:16:36;102199.91;;;23.37;37.07
76973;BME280;65907;53.640;10.050;2023-05-27T08:19:01;102192.16;;;23.36;37.34
76973;BME280;65907;53.640;10.050;2023-05-27T08:21:26;102190.13;;;23.39;36.98
76973;BME280;65907;53.640;10.050;2023-05-27T08:23:52;102183.53;;;23.46;37.09
76973;BME280;65907;53.640;10.050;2023-05-27T08:26:17;102191.19;;;23.49;36.95
76973;BME280;65907;53.640;10.050;2023-05-27T08:28:43;102182.31;;;23.63;36.57
76973;BME280;65907;53.640;10.050;2023-05-27T08:31:08;102183.34;;;23.61;36.95
76973;BME280;65907;53.640;10.050;2023-05-27T08:33:33;102181.38;;;23.65;37.00
76973;BME280;65907;53.640;10.050;2023-05-27T08:36:00;102184.72;;;23.67;36.81
76973;BME280;65907;53.640;10.050;2023-05-27T08:38:25;102171.31;;;23.58;37.00
76973;BME280;65907;53.640;10.050;2023-05-27T08:40:50;102173.44;;;23.53;37.28
76973;BME280;65907;53.640;10.050;2023-05-27T08:43:16;102173.97;;;23.45;37.27
76973;BME280;65907;53.640;10.050;2023-05-27T08:45:42;102169.69;;;23.69;36.87
76973;BME280;65907;53.640;10.050;2023-05-27T08:48:09;102173.47;;;23.65;37.02
76973;BME280;65907;53.640;10.050;2023-05-27T08:50:34;102172.25;;;23.57;37.14
76973;BME280;65907;53.640;10.050;2023-05-27T08:53:00;102176.00;;;23.66;36.85
76973;BME280;65907;53.640;10.050;2023-05-27T08:55:25;102175.16;;;23.66;37.28
76973;BME280;65907;53.640;10.050;2023-05-27T08:57:56;102168.19;;;23.53;37.53
76973;BME280;65907;53.640;10.050;2023-05-27T09:00:24;102165.47;;;23.42;37.57
76973;BME280;65907;53.640;10.050;2023-05-27T09:02:51;102158.09;;;23.47;37.55
76973;BME280;65907;53.640;10.050;2023-05-27T09:05:17;102159.69;;;23.49;37.56
76973;BME280;65907;53.640;10.050;2023-05-27T09:07:44;102156.78;;;23.28;37.86
76973;BME280;65907;53.640;10.050;2023-05-27T09:10:10;102152.84;;;23.47;37.43
76973;BME280;65907;53.640;10.050;2023-05-27T09:12:35;102147.78;;;23.57;37.21
76973;BME280;65907;53.640;10.050;2023-05-27T09:15:01;102154.16;;;23.66;37.43
76973;BME280;65907;53.640;10.050;2023-05-27T09:17:26;102148.44;;;23.72;37.21
76973;BME280;65907;53.640;10.050;2023-05-27T09:19:52;102146.16;;;23.43;37.60
76973;BME280;65907;53.640;10.050;2023-05-27T09:24:51;102152.38;;;23.66;37.30
76973;BME280;65907;53.640;10.050;2023-05-27T09:27:18;102154.31;;;23.51;37.77
76973;BME280;65907;53.640;10.050;2023-05-27T09:29:44;102147.72;;;23.45;37.81
76973;BME280;65907;53.640;10.050;2023-05-27T09:32:09;102150.72;;;23.52;37.66
76973;BME280;65907;53.640;10.050;2023-05-27T09:34:38;102152.34;;;23.42;37.81
76973;BME280;65907;53.640;10.050;2023-05-27T09:37:03;102149.63;;;23.43;37.80
76973;BME280;65907;53.640;10.050;2023-05-27T09:39:32;102138.69;;;23.49;37.73
76973;BME280;65907;53.640;10.050;2023-05-27T09:42:00;102144.19;;;23.33;37.90
76973;BME280;65907;53.640;10.050;2023-05-27T09:44:30;102140.06;;;23.42;37.87
76973;BME280;65907;53.640;10.050;2023-05-27T09:46:55;102133.91;;;23.30;38.09
76973;BME280;65907;53.640;10.050;2023-05-27T09:49:21;102130.41;;;23.43;37.74
76973;BME280;65907;53.640;10.050;2023-05-27T09:51:50;102123.66;;;23.52;37.55
76973;BME280;65907;53.640;10.050;2023-05-27T09:54:17;102131.84;;;23.47;37.71
76973;BME280;65907;53.640;10.050;2023-05-27T09:56:42;102122.25;;;23.34;38.09
76973;BME280;65907;53.640;10.050;2023-05-27T09:59:08;102129.91;;;23.38;37.94
76973;BME280;65907;53.640;10.050;2023-05-27T10:01:33;102122.66;;;23.41;37.82
76973;BME280;65907;53.640;10.050;2023-05-27T10:04:01;102122.78;;;23.51;37.71
76973;BME280;65907;53.640;10.050;2023-05-27T10:06:27;102122.28;;;23.46;37.74
76973;BME280;65907;53.640;10.050;2023-05-27T10:08:54;102123.25;;;23.45;37.78
76973;BME280;65907;53.640;10.050;2023-05-27T10:11:23;102121.78;;;23.41;38.02
76973;BME280;65907;53.640;10.050;2023-05-27T10:13:51;102120.03;;;23.41;37.92
76973;BME280;65907;53.640;10.050;2023-05-27T10:16:21;102116.38;;;23.31;37.95
76973;BME280;65907;53.640;10.050;2023-05-27T10:18:46;102107.66;;;23.30;38.01
76973;BME280;65907;53.640;10.050;2023-05-27T10:21:20;102109.84;;;23.37;38.16
76973;BME280;65907;53.640;10.050;2023-05-27T10:23:56;102106.50;;;23.34;38.32
76973;BME280;65907;53.640;10.050;2023-05-27T10:26:30;102101.25;;;23.34;37.93
76973;BME280;65907;53.640;10.050;2023-05-27T10:29:04;102097.72;;;23.10;38.28
76973;BME280;65907;53.640;10.050;2023-05-27T10:31:29;102096.84;;;23.22;38.30
76973;BME280;65907;53.640;10.050;2023-05-27T10:33:56;102098.41;;;23.25;38.24
76973;BME280;65907;53.640;10.050;2023-05-27T10:36:23;102096.50;;;23.40;38.22
76973;BME280;65907;53.640;10.050;2023-05-27T10:38:55;102087.03;;;23.37;37.71
76973;BME280;65907;53.640;10.050;2023-05-27T10:41:21;102084.00;;;23.43;37.82
76973;BME280;65907;53.640;10.050;2023-05-27T10:43:54;102084.88;;;23.18;38.42
76973;BME280;65907;53.640;10.050;2023-05-27T10:46:20;102079.88;;;23.15;38.28
76973;BME280;65907;53.640;10.050;2023-05-27T10:48:45;102072.59;;;23.31;37.98
76973;BME280;65907;53.640;10.050;2023-05-27T10:51:10;102075.81;;;23.35;38.19
76973;BME280;65907;53.640;10.050;2023-05-27T10:53:36;102070.56;;;23.35;38.11
76973;BME280;65907;53.640;10.050;2023-05-27T10:56:02;102068.09;;;23.20;38.25
76973;BME280;65907;53.640;10.050;2023-05-27T10:58:27;102066.59;;;23.29;38.08
76973;BME280;65907;53.640;10.050;2023-05-27T11:00:53;102058.00;;;23.27;37.79
76973;BME280;65907;53.640;10.050;2023-05-27T11:03:23;102059.16;;;23.23;38.15
76973;BME280;65907;53.640;10.050;2023-05-27T11:06:01;102055.69;;;23.23;38.10
76973;BME280;65907;53.640;10.050;2023-05-27T11:08:27;102050.78;;;23.18;38.29
76973;BME280;65907;53.640;10.050;2023-05-27T11:11:02;102054.56;;;23.27;38.16
76973;BME280;65907;53.640;10.050;2023-05-27T11:15:56;102043.00;;;23.16;38.32
76973;BME280;65907;53.640;10.050;2023-05-27T11:18:22;102044.06;;;23.27;38.14
76973;BME280;65907;53.640;10.050;2023-05-27T11:20:47;102038.44;;;23.07;38.52
76973;BME280;65907;53.640;10.050;2023-05-27T11:23:12;102038.16;;;23.23;38.31
76973;BME280;65907;53.640;10.050;2023-05-27T11:25:43;102030.28;;;23.23;38.23
76973;BME280;65907;53.640;10.050;2023-05-27T11:28:15;102031.22;;;23.35;38.05
76973;BME280;65907;53.640;10.050;2023-05-27T11:30:41;102036.66;;;23.08;38.41
76973;BME280;65907;53.640;10.050;2023-05-27T11:33:06;102034.09;;;23.19;38.01
76973;BME280;65907;53.640;10.050;2023-05-27T11:35:33;102035.25;;;23.15;38.40
76973;BME280;65907;53.640;10.050;2023-05-27T11:37:58;102018.34;;;23.19;38.19
76973;BME280;65907;53.640;10.050;2023-05-27T11:40:23;102022.13;;;23.15;38.22
76973;BME280;65907;53.640;10.050;2023-05-27T11:42:49;102020.13;;;23.31;38.21
76973;BME280;65907;53.640;10.050;2023-05-27T11:45:15;102018.97;;;23.23;38.10
76973;BME280;65907;53.640;10.050;2023-05-27T11:47:41;102006.41;;;23.15;38.43
76973;BME280;65907;53.640;10.050;2023-05-27T11:50:06;102000.19;;;23.16;38.22
76973;BME280;65907;53.640;10.050;2023-05-27T11:52:31;102004.94;;;23.11;38.34
76973;BME280;65907;53.640;10.050;2023-05-27T11:54:57;101999.03;;;23.20;38.12
76973;BME280;65907;53.640;10.050;2023-05-27T11:57:23;101991.88;;;23.22;38.21
76973;BME280;65907;53.640;10.050;2023-05-27T11:59:51;101992.09;;;23.19;38.33
76973;BME280;65907;53.640;10.050;2023-05-27T12:02:16;101987.25;;;23.01;38.45
76973;BME280;65907;53.640;10.050;2023-05-27T12:04:42;101988.59;;;23.07;38.65
76973;BME280;65907;53.640;10.050;2023-05-27T12:07:07;101983.25;;;23.09;38.23
76973;BME280;65907;53.640;10.050;2023-05-27T12:09:36;101982.63;;;23.05;38.52
76973;BME280;65907;53.640;10.050;2023-05-27T12:12:01;101981.44;;;23.09;38.54
76973;BME280;65907;53.640;10.050;2023-05-27T12:14:26;101974.75;;;23.05;38.84
76973;BME280;65907;53.640;10.050;2023-05-27T12:16:52;101971.16;;;23.06;38.40
76973;BME280;65907;53.640;10.050;2023-05-27T12:19:17;101968.44;;;23.08;38.42
76973;BME280;65907;53.640;10.050;2023-05-27T12:21:42;101971.28;;;23.04;38.56
76973;BME280;65907;53.640;10.050;2023-05-27T12:24:07;101961.41;;;23.08;38.42
76973;BME280;65907;53.640;10.050;2023-05-27T12:26:34;101953.19;;;23.13;38.40
76973;BME280;65907;53.640;10.050;2023-05-27T12:28:59;101959.81;;;23.05;38.61
76973;BME280;65907;53.640;10.050;2023-05-27T12:31:24;101954.38;;;23.09;38.61
76973;BME280;65907;53.640;10.050;2023-05-27T12:33:50;101941.25;;;23.09;38.41
76973;BME280;65907;53.640;10.050;2023-05-27T12:36:15;101941.97;;;23.11;38.63
76973;BME280;65907;53.640;10.050;2023-05-27T12:38:40;101940.31;;;23.10;38.34
76973;BME280;65907;53.640;10.050;2023-05-27T12:41:06;101937.56;;;23.11;38.52
76973;BME280;65907;53.640;10.050;2023-05-27T12:43:31;101928.56;;;23.02;38.51
76973;BME280;65907;53.640;10.050;2023-05-27T12:45:56;101927.63;;;23.03;38.50
76973;BME280;65907;53.640;10.050;2023-05-27T12:48:22;101922.44;;;23.15;38.36